Time;durP1;ratioP1;P1;durP2;ratioP2;P2;SDS_P1;SDS_P2;PMS_P1;PMS_P2;Temp;Humidity;BMP_temperature;BMP_pressure;BME280_temperature;BME280_humidity;BME280_pressure;Samples;Min_cycle;Max_cycle;Signal;HPM_P1;HPM_P2
2022/01/01 00:02:21;;;;;;;9.70;6.60;;;;;;;;;;5056200;28;20445;-62
2022/01/01 00:04:47;;;;;;;7.50;5.40;;;;;;;;;;5054705;28;20438;-62
2022/01/01 00:07:14;;;;;;;6.90;6.00;;;14.50;1.00;;;;;;5049653;28;20528;-62
2022/01/01 00:09:41;;;;;;;9.27;5.20;;;;;;;;;;5060045;28;20527;-62
2022/01/01 00:12:07;;;;;;;9.30;5.20;;;;;;;;;;5061756;28;20425;-63
2022/01/01 00:14:33;;;;;;;6.77;4.97;;;14.70;1.00;;;;;;5065614;28;20705;-62
2022/01/01 00:16:59;;;;;;;6.87;5.57;;;;;;;;;;5060981;28;20442;-62
2022/01/01 00:19:25;;;;;;;6.23;4.80;;;;;;;;;;5065511;28;20438;-63
2022/01/01 00:21:51;;;;;;;6.17;4.97;;;;;;;;;;5057748;28;20471;-63
2022/01/01 00:24:17;;;;;;;5.53;5.00;;;;;;;;;;5060943;28;20530;-63
2022/01/01 00:26:43;;;;;;;6.40;5.67;;;;;;;;;;5059178;28;20438;-65
2022/01/01 00:29:09;;;;;;;6.10;4.97;;;;;;;;;;5062791;28;20534;-62
2022/01/01 00:31:35;;;;;;;10.03;6.97;;;;;;;;;;5060250;28;20451;-62
2022/01/01 00:34:01;;;;;;;5.07;4.57;;;;;;;;;;5056653;28;20934;-62
2022/01/01 00:36:27;;;;;;;7.70;5.90;;;;;;;;;;5064575;28;20413;-63
2022/01/01 00:38:53;;;;;;;7.00;5.03;;;14.60;1.00;;;;;;5053753;28;20529;-64
2022/01/01 00:41:19;;;;;;;5.60;4.80;;;;;;;;;;5057222;28;21216;-63
2022/01/01 00:43:45;;;;;;;5.60;4.67;;;14.30;1.00;;;;;;5064833;28;20644;-64
2022/01/01 00:46:11;;;;;;;5.70;5.00;;;14.60;1.00;;;;;;5059234;28;20780;-63
2022/01/01 00:48:39;;;;;;;6.27;5.67;;;14.50;1.00;;;;;;5059076;28;20253;-60
2022/01/01 00:51:04;;;;;;;7.47;4.63;;;;;;;;;;5052147;28;20538;-64
2022/01/01 00:53:31;;;;;;;5.77;4.60;;;;;;;;;;5060873;28;20568;-62
2022/01/01 00:55:58;;;;;;;7.63;5.20;;;;;;;;;;5055088;28;20448;-61
2022/01/01 00:58:23;;;;;;;5.80;4.77;;;;;;;;;;5060735;28;20932;-64
2022/01/01 01:00:49;;;;;;;6.20;5.60;;;;;;;;;;5060216;28;20443;-61
2022/01/01 01:03:16;;;;;;;6.50;5.53;;;;;;;;;;5058050;28;20518;-63
2022/01/01 01:05:44;;;;;;;5.67;5.10;;;;;;;;;;5053902;28;20530;-63
2022/01/01 01:08:11;;;;;;;7.03;4.97;;;14.50;1.00;;;;;;5066836;28;20661;-63
2022/01/01 01:10:38;;;;;;;7.43;5.10;;;14.70;1.00;;;;;;5059373;28;20454;-62
2022/01/01 01:13:04;;;;;;;6.40;5.27;;;;;;;;;;5064459;28;20564;-65
2022/01/01 01:15:32;;;;;;;6.10;5.50;;;;;;;;;;5054991;28;20425;-63
2022/01/01 01:17:58;;;;;;;5.87;4.50;;;;;;;;;;5048252;28;20435;-63
2022/01/01 01:20:25;;;;;;;5.80;5.30;;;14.50;1.00;;;;;;5044529;28;20462;-60
2022/01/01 01:22:51;;;;;;;5.57;5.07;;;;;;;;;;5057372;28;20511;-60
2022/01/01 01:25:17;;;;;;;6.77;4.90;;;;;;;;;;5057218;28;20844;-61
2022/01/01 01:27:44;;;;;;;5.93;4.93;;;;;;;;;;5053167;28;20456;-61
2022/01/01 01:30:13;;;;;;;6.13;4.90;;;14.80;1.00;;;;;;5051633;28;20442;-62
2022/01/01 01:32:41;;;;;;;7.87;4.73;;;14.50;1.00;;;;;;5059254;28;20566;-62
2022/01/01 01:35:08;;;;;;;9.03;5.00;;;14.50;1.00;;;;;;5054184;28;20447;-60
2022/01/01 01:37:34;;;;;;;8.87;5.20;;;;;;;;;;5052522;28;20436;-61
2022/01/01 01:40:00;;;;;;;5.90;4.87;;;;;;;;;;5054292;28;21055;-59
2022/01/01 01:42:28;;;;;;;6.43;4.90;;;14.70;1.00;;;;;;5052979;28;20781;-62
2022/01/01 01:44:54;;;;;;;5.23;4.67;;;;;;;;;;5060872;28;20409;-61
2022/01/01 01:47:29;;;;;;;5.37;4.47;;;;;;;;;;5054765;28;20447;-60
2022/01/01 01:49:55;;;;;;;6.53;4.93;;;;;;;;;;5055872;28;20448;-60
2022/01/01 01:52:22;;;;;;;5.37;4.40;;;;;;;;;;5050070;28;20726;-60
2022/01/01 01:54:48;;;;;;;5.10;4.20;;;;;;;;;;5049344;28;20445;-61
2022/01/01 01:57:14;;;;;;;5.23;4.37;;;;;;;;;;5048040;28;20446;-60
2022/01/01 01:59:45;;;;;;;5.30;4.70;;;;;;;;;;5044522;28;20934;-61
2022/01/01 02:02:11;;;;;;;6.30;4.20;;;;;;;;;;5048354;28;20475;-60
2022/01/01 02:04:37;;;;;;;5.00;4.20;;;;;;;;;;5047023;28;20457;-62
2022/01/01 02:07:10;;;;;;;5.03;4.53;;;14.50;1.00;;;;;;5046582;28;20514;-60
2022/01/01 02:09:37;;;;;;;6.17;4.50;;;14.60;1.00;;;;;;5052034;28;20429;-60
2022/01/01 02:12:04;;;;;;;6.00;4.30;;;;;;;;;;5044079;28;20445;-60
2022/01/01 02:19:26;;;;;;;7.03;5.47;;;;;;;;;;5050807;28;21173;-59
2022/01/01 02:21:54;;;;;;;6.40;5.50;;;14.60;1.00;;;;;;5041524;28;20777;-59
2022/01/01 02:24:21;;;;;;;7.87;4.97;;;;;;;;;;5047186;28;20912;-61
2022/01/01 02:26:47;;;;;;;6.57;5.33;;;;;;;;;;5051238;28;20494;-60
2022/01/01 02:29:13;;;;;;;8.40;5.30;;;;;;;;;;5051486;28;20417;-59
2022/01/01 02:31:39;;;;;;;8.60;5.83;;;;;;;;;;5048538;28;21875;-60
2022/01/01 02:37:51;;;;;;;10.90;6.23;;;14.70;1.00;;;;;;4920643;29;20452;-60
2022/01/01 02:40:17;;;;;;;8.43;5.47;;;;;;;;;;4943587;28;20459;-59
2022/01/01 02:42:43;;;;;;;5.83;5.23;;;;;;;;;;5026645;28;20554;-60
2022/01/01 02:45:11;;;;;;;6.63;4.97;;;;;;;;;;5045173;28;20784;-60
2022/01/01 02:47:37;;;;;;;7.00;4.90;;;;;;;;;;5053401;28;20587;-58
2022/01/01 02:50:04;;;;;;;5.53;5.03;;;;;;;;;;5048642;28;20544;-58
2022/01/01 02:52:30;;;;;;;6.73;5.40;;;;;;;;;;5049505;28;20975;-59
2022/01/01 02:54:55;;;;;;;6.73;5.13;;;;;;;;;;5048097;28;20451;-59
2022/01/01 02:57:22;;;;;;;5.20;4.70;;;;;;;;;;5055758;28;21009;-59
2022/01/01 02:59:48;;;;;;;6.30;4.90;;;14.60;1.00;;;;;;5047195;28;20572;-60
2022/01/01 03:02:14;;;;;;;6.27;5.13;;;;;;;;;;5050680;28;20451;-59
2022/01/01 03:04:40;;;;;;;5.90;5.10;;;;;;;;;;5061341;28;20450;-60
2022/01/01 03:07:06;;;;;;;7.57;5.27;;;;;;;;;;5059013;28;20455;-60
2022/01/01 03:09:34;;;;;;;8.50;7.13;;;;;;;;;;5055268;28;20450;-59
2022/01/01 03:12:05;;;;;;;6.60;5.30;;;14.60;1.00;;;;;;5048048;28;20455;-60
2022/01/01 03:14:31;;;;;;;7.93;5.63;;;;;;;;;;5052237;28;20446;-60
2022/01/01 03:16:57;;;;;;;6.33;4.83;;;14.50;1.00;;;;;;5057134;28;20425;-60
2022/01/01 03:19:23;;;;;;;6.07;4.63;;;;;;;;;;5053737;28;20981;-60
2022/01/01 03:21:49;;;;;;;5.93;5.20;;;;;;;;;;5058702;28;20488;-61
2022/01/01 03:24:15;;;;;;;6.53;4.70;;;;;;;;;;5056407;28;20454;-60
2022/01/01 03:26:41;;;;;;;5.73;4.40;;;;;;;;;;5050182;28;20565;-59
2022/01/01 03:29:07;;;;;;;7.27;4.43;;;;;;;;;;5053810;28;20443;-61
2022/01/01 03:31:33;;;;;;;5.60;5.00;;;;;;;;;;5058697;28;20472;-59
2022/01/01 03:33:59;;;;;;;5.80;5.20;;;;;;;;;;5049987;28;20447;-60
2022/01/01 03:36:26;;;;;;;7.17;5.10;;;;;;;;;;5051069;28;20830;-58
2022/01/01 03:38:52;;;;;;;6.73;4.80;;;;;;;;;;5051748;28;20441;-58
2022/01/01 03:41:18;;;;;;;6.00;4.50;;;;;;;;;;5051503;28;20432;-58
2022/01/01 03:43:44;;;;;;;4.60;4.20;;;;;;;;;;5049507;28;20762;-60
2022/01/01 03:46:10;;;;;;;8.10;5.27;;;;;;;;;;5055611;28;20971;-59
2022/01/01 03:48:36;;;;;;;5.57;4.53;;;;;;;;;;5063574;28;20422;-59
2022/01/01 03:51:02;;;;;;;7.53;4.97;;;;;;;;;;5062017;28;20848;-60
2022/01/01 03:53:28;;;;;;;5.03;4.63;;;;;;;;;;5052295;28;20478;-59
2022/01/01 03:55:54;;;;;;;7.73;4.87;;;;;;;;;;5055960;28;20505;-59
2022/01/01 03:58:20;;;;;;;7.00;4.60;;;;;;;;;;5042740;28;20425;-59
2022/01/01 04:00:46;;;;;;;4.70;4.20;;;;;;;;;;5048140;28;20453;-59
2022/01/01 04:03:13;;;;;;;6.73;4.60;;;;;;;;;;5054606;28;20429;-59
2022/01/01 04:05:40;;;;;;;5.00;3.80;;;14.60;1.00;;;;;;5056124;28;20583;-60
2022/01/01 04:08:07;;;;;;;8.13;4.33;;;;;;;;;;5054145;28;20791;-60
2022/01/01 04:10:33;;;;;;;4.97;3.90;;;;;;;;;;5055630;28;20432;-59
2022/01/01 04:12:59;;;;;;;4.93;4.37;;;;;;;;;;5056996;28;20497;-60
2022/01/01 04:15:26;;;;;;;3.90;3.50;;;;;;;;;;5059192;28;20919;-60
2022/01/01 04:17:57;;;;;;;4.40;3.80;;;14.70;1.00;;;;;;5053101;28;20418;-59
2022/01/01 04:20:23;;;;;;;5.60;3.90;;;;;;;;;;5053171;28;20436;-59
2022/01/01 04:22:49;;;;;;;6.57;4.73;;;;;;;;;;5055541;28;20463;-60
2022/01/01 04:25:15;;;;;;;5.03;4.10;;;;;;;;;;5050397;28;20450;-60
2022/01/01 04:27:41;;;;;;;5.33;4.33;;;;;;;;;;5055402;28;20498;-59
2022/01/01 04:30:07;;;;;;;5.50;4.27;;;;;;;;;;5050954;28;20447;-60
2022/01/01 04:32:33;;;;;;;3.83;3.30;;;;;;;;;;5052654;28;20445;-61
2022/01/01 04:34:59;;;;;;;4.50;4.00;;;;;;;;;;5055567;28;20454;-59
2022/01/01 04:37:25;;;;;;;5.63;3.83;;;;;;;;;;5052622;28;20474;-61
2022/01/01 04:39:59;;;;;;;4.40;3.80;;;14.50;1.00;;;;;;5055806;28;21151;-59
2022/01/01 04:42:25;;;;;;;5.00;3.33;;;;;;;;;;5057071;28;20418;-58
2022/01/01 04:44:51;;;;;;;4.13;3.73;;;14.40;1.00;;;;;;5059366;28;20510;-58
2022/01/01 04:47:18;;;;;;;4.20;3.50;;;;;;;;;;5065456;28;20865;-60
2022/01/01 04:49:44;;;;;;;5.57;3.90;;;;;;;;;;5051855;28;20554;-59
2022/01/01 04:52:10;;;;;;;4.50;3.93;;;;;;;;;;5052012;28;20456;-59
2022/01/01 04:54:40;;;;;;;4.60;3.80;;;14.20;1.00;;;;;;5045607;28;20786;-59
2022/01/01 04:57:06;;;;;;;4.97;4.30;;;;;;;;;;5047731;28;20459;-60
2022/01/01 04:59:32;;;;;;;5.87;4.37;;;;;;;;;;5048623;28;20419;-60
2022/01/01 05:01:57;;;;;;;7.27;4.17;;;;;;;;;;5052194;28;20434;-58
2022/01/01 05:04:23;;;;;;;5.30;4.10;;;;;;;;;;5053464;28;20442;-60
2022/01/01 05:06:51;;;;;;;4.17;3.80;;;;;;;;;;5065126;28;20737;-61
2022/01/01 05:09:17;;;;;;;6.90;4.20;;;;;;;;;;5043096;28;20458;-61
2022/01/01 05:11:43;;;;;;;7.87;3.70;;;14.30;1.00;;;;;;5050071;28;20609;-59
2022/01/01 05:14:09;;;;;;;5.67;3.90;;;;;;;;;;5063054;28;20792;-60
2022/01/01 05:16:35;;;;;;;4.43;3.50;;;;;;;;;;5053447;28;20600;-60
2022/01/01 05:19:01;;;;;;;5.53;3.67;;;;;;;;;;5049015;28;20437;-60
2022/01/01 05:21:32;;;;;;;4.97;4.00;;;14.00;1.00;;;;;;5058042;28;20466;-61
2022/01/01 05:23:58;;;;;;;4.50;3.63;;;;;;;;;;5053773;28;20567;-60
2022/01/01 05:26:24;;;;;;;4.20;3.90;;;14.00;1.00;;;;;;5049458;28;20927;-59
2022/01/01 05:28:50;;;;;;;6.07;3.70;;;;;;;;;;5055358;28;20505;-61
2022/01/01 05:31:19;;;;;;;4.33;3.70;;;;;;;;;;5049510;28;20480;-60
2022/01/01 05:33:45;;;;;;;3.80;3.40;;;;;;;;;;5042028;28;20540;-59
2022/01/01 05:36:11;;;;;;;3.70;3.40;;;;;;;;;;5056041;28;20455;-61
2022/01/01 05:38:37;;;;;;;4.67;3.90;;;;;;;;;;5053248;28;20446;-59
2022/01/01 05:41:02;;;;;;;4.50;3.67;;;14.30;1.00;;;;;;5054447;28;20442;-60
2022/01/01 05:43:28;;;;;;;4.37;3.10;;;14.30;1.00;;;;;;5052981;28;20462;-59
2022/01/01 05:45:54;;;;;;;4.17;3.70;;;;;;;;;;5048500;28;20186;-61
2022/01/01 05:48:19;;;;;;;4.37;3.93;;;14.30;1.00;;;;;;5046566;28;20189;-60
2022/01/01 05:50:45;;;;;;;5.80;3.40;;;;;;;;;;5043258;28;20948;-59
2022/01/01 05:53:11;;;;;;;3.83;3.43;;;14.40;1.00;;;;;;5043234;28;20404;-59
2022/01/01 05:55:37;;;;;;;4.23;3.50;;;;;;;;;;5043675;28;20775;-60
2022/01/01 05:58:05;;;;;;;4.20;3.80;;;;;;;;;;5045332;28;20614;-59
2022/01/01 06:00:31;;;;;;;3.97;3.13;;;;;;;;;;5049661;28;20434;-59
2022/01/01 06:03:00;;;;;;;4.53;4.13;;;;;;;;;;5046454;28;20447;-59
2022/01/01 06:05:27;;;;;;;7.07;4.00;;;14.40;1.00;;;;;;5044094;28;20428;-61
2022/01/01 06:07:54;;;;;;;8.73;5.40;;;14.30;1.00;;;;;;5054577;28;20422;-59
2022/01/01 06:10:20;;;;;;;4.80;3.87;;;;;;;;;;5058026;28;20477;-61
2022/01/01 06:12:46;;;;;;;5.50;3.50;;;14.50;1.00;;;;;;5059858;28;20597;-60
2022/01/01 06:15:12;;;;;;;3.63;3.17;;;;;;;;;;5058913;28;20849;-60
2022/01/01 06:17:38;;;;;;;5.03;3.50;;;;;;;;;;5047582;28;20182;-61
2022/01/01 06:20:04;;;;;;;4.33;3.60;;;;;;;;;;5061586;28;20406;-59
2022/01/01 06:22:30;;;;;;;3.77;3.27;;;;;;;;;;5053583;28;20756;-60
2022/01/01 06:24:56;;;;;;;7.20;3.70;;;;;;;;;;5050508;28;20447;-60
2022/01/01 06:27:22;;;;;;;4.13;3.30;;;;;;;;;;5059293;28;20555;-60
2022/01/01 06:29:50;;;;;;;3.93;3.53;;;14.40;1.00;;;;;;5054296;28;20483;-60
2022/01/01 06:32:16;;;;;;;3.63;2.90;;;;;;;;;;5056757;28;20805;-60
2022/01/01 06:34:42;;;;;;;3.50;3.17;;;;;;;;;;5057800;28;20475;-60
2022/01/01 06:37:08;;;;;;;3.67;2.80;;;;;;;;;;5051294;28;21029;-59
2022/01/01 06:39:34;;;;;;;3.53;2.80;;;;;;;;;;5049835;28;20439;-60
2022/01/01 06:42:00;;;;;;;3.90;2.90;;;;;;;;;;5057581;28;20448;-60
2022/01/01 06:44:26;;;;;;;4.10;3.17;;;;;;;;;;5051586;28;20466;-59
2022/01/01 06:46:53;;;;;;;3.20;2.90;;;;;;;;;;5054078;28;20426;-62
2022/01/01 06:49:19;;;;;;;4.73;3.43;;;;;;;;;;5053734;28;20450;-60
2022/01/01 06:51:44;;;;;;;3.97;3.10;;;14.40;1.00;;;;;;5049500;28;20472;-59
2022/01/01 06:54:10;;;;;;;3.20;2.80;;;14.60;1.00;;;;;;5053233;28;20474;-60
2022/01/01 06:56:36;;;;;;;4.33;3.10;;;;;;;;;;5056914;28;20546;-59
2022/01/01 06:59:02;;;;;;;4.00;3.03;;;;;;;;;;5052596;28;20611;-62
2022/01/01 07:01:28;;;;;;;3.13;2.80;;;;;;;;;;5055452;28;20450;-60
2022/01/01 07:03:54;;;;;;;2.77;2.53;;;;;;;;;;5060473;28;20459;-60
2022/01/01 07:06:20;;;;;;;4.50;2.97;;;;;;;;;;5055740;28;20453;-60
2022/01/01 07:08:46;;;;;;;3.67;2.50;;;;;;;;;;5055307;28;20486;-59
2022/01/01 07:11:12;;;;;;;7.93;2.77;;;;;;;;;;5056421;28;21050;-59
2022/01/01 07:13:38;;;;;;;3.87;3.00;;;;;;;;;;5057709;28;20469;-61
2022/01/01 07:16:04;;;;;;;3.40;2.60;;;;;;;;;;5052393;28;20499;-59
2022/01/01 07:18:30;;;;;;;3.47;3.17;;;;;;;;;;5048254;28;20432;-61
2022/01/01 07:20:56;;;;;;;3.23;2.50;;;;;;;;;;5051543;28;20421;-59
2022/01/01 07:23:22;;;;;;;2.77;2.57;;;;;;;;;;5060093;28;20456;-60
2022/01/01 07:25:48;;;;;;;3.73;2.70;;;;;;;;;;5059850;28;20446;-60
2022/01/01 07:28:16;;;;;;;2.67;2.40;;;14.40;1.00;;;;;;5051057;28;20574;-60
2022/01/01 07:30:42;;;;;;;4.67;2.77;;;;;;;;;;5058154;28;20936;-60
2022/01/01 07:33:08;;;;;;;2.37;2.17;;;;;;;;;;5054255;28;20448;-59
2022/01/01 07:35:36;;;;;;;3.37;2.77;;;;;;;;;;5059640;28;20435;-59
2022/01/01 07:38:02;;;;;;;2.83;2.60;;;14.40;1.00;;;;;;5055445;28;20419;-61
2022/01/01 07:40:29;;;;;;;3.40;2.67;;;;;;;;;;5046389;28;20429;-60
2022/01/01 07:42:55;;;;;;;2.70;2.50;;;;;;;;;;5058089;28;20196;-60
2022/01/01 07:45:21;;;;;;;4.67;2.23;;;;;;;;;;5057380;28;20530;-60
2022/01/01 07:47:46;;;;;;;2.77;2.10;;;14.60;1.00;;;;;;5056358;28;20961;-59
2022/01/01 07:50:12;;;;;;;3.27;2.30;;;;;;;;;;5053441;28;20461;-60
2022/01/01 07:52:38;;;;;;;4.90;2.60;;;14.50;1.00;;;;;;5059830;28;20208;-63
2022/01/01 07:55:04;;;;;;;3.60;2.07;;;14.40;1.00;;;;;;5055071;28;20430;-60
2022/01/01 07:57:30;;;;;;;3.00;2.13;;;;;;;;;;5052118;28;20462;-60
2022/01/01 07:59:56;;;;;;;4.57;2.47;;;14.40;1.00;;;;;;5047818;28;20930;-59
2022/01/01 08:02:22;;;;;;;3.50;2.53;;;;;;;;;;5051448;28;20422;-63
2022/01/01 08:04:48;;;;;;;2.30;2.10;;;;;;;;;;5057133;28;20467;-59
2022/01/01 08:07:14;;;;;;;3.67;2.23;;;14.40;1.00;;;;;;5056879;28;20949;-60
2022/01/01 08:09:40;;;;;;;2.10;1.90;;;;;;;;;;5056262;28;20766;-59
2022/01/01 08:12:07;;;;;;;3.17;2.50;;;14.80;1.00;;;;;;5058790;28;20184;-60
2022/01/01 08:14:33;;;;;;;2.13;1.93;;;;;;;;;;5062145;28;20544;-61
2022/01/01 08:17:04;;;;;;;3.17;2.87;;;14.50;1.00;;;;;;5057935;28;20422;-59
2022/01/01 08:19:30;;;;;;;3.83;2.30;;;14.50;1.00;;;;;;5050394;28;20430;-60
2022/01/01 08:21:56;;;;;;;2.80;2.10;;;;;;;;;;5050481;28;20956;-60
2022/01/01 08:24:22;;;;;;;3.63;2.53;;;;;;;;;;5055783;28;20518;-60
2022/01/01 08:26:48;;;;;;;2.47;2.27;;;14.70;1.00;;;;;;5059724;28;20490;-62
2022/01/01 08:29:14;;;;;;;3.53;2.27;;;;;;;;;;5054005;28;20525;-60
2022/01/01 08:31:40;;;;;;;5.93;2.60;;;14.50;1.00;;;;;;5056377;28;20433;-60
2022/01/01 08:34:06;;;;;;;2.60;1.97;;;;;;;;;;5058627;28;20448;-59
2022/01/01 08:36:32;;;;;;;3.17;2.80;;;;;;;;;;5057667;28;20197;-61
2022/01/01 08:38:58;;;;;;;3.60;2.73;;;;;;;;;;5052956;28;20452;-61
2022/01/01 08:41:25;;;;;;;3.03;1.80;;;14.60;1.00;;;;;;5057815;28;20953;-59
2022/01/01 08:43:50;;;;;;;4.60;2.20;;;;;;;;;;5045344;28;20445;-59
2022/01/01 08:46:16;;;;;;;4.23;2.50;;;;;;;;;;5058632;28;20733;-60
2022/01/01 08:48:42;;;;;;;3.90;2.33;;;14.60;1.00;;;;;;5049259;28;20452;-59
2022/01/01 08:51:13;;;;;;;3.37;1.90;;;14.60;1.00;;;;;;5052528;28;20448;-59
2022/01/01 08:53:39;;;;;;;1.97;1.77;;;;;;;;;;5050665;28;20224;-59
2022/01/01 08:56:07;;;;;;;2.57;1.97;;;;;;;;;;5057392;28;20447;-60
2022/01/01 08:58:33;;;;;;;4.83;4.00;;;;;;;;;;5053174;28;20433;-59
2022/01/01 09:00:59;;;;;;;3.57;2.60;;;;;;;;;;5054537;28;20917;-59
2022/01/01 09:03:25;;;;;;;2.93;2.50;;;;;;;;;;5050706;28;20447;-59
2022/01/01 09:05:51;;;;;;;4.20;2.27;;;;;;;;;;5051434;28;20555;-59
2022/01/01 09:08:17;;;;;;;2.57;2.37;;;;;;;;;;5062208;28;20450;-61
2022/01/01 09:10:43;;;;;;;3.70;2.33;;;;;;;;;;5050096;28;20474;-60
2022/01/01 09:13:09;;;;;;;3.43;2.03;;;14.60;1.00;;;;;;5055237;28;20763;-60
2022/01/01 09:15:34;;;;;;;2.97;2.13;;;14.70;1.00;;;;;;5055252;28;20445;-60
2022/01/01 09:18:00;;;;;;;2.80;2.20;;;;;;;;;;5055139;28;20192;-60
2022/01/01 09:20:26;;;;;;;2.87;2.13;;;;;;;;;;5052039;28;20235;-61
2022/01/01 09:22:52;;;;;;;3.50;2.20;;;;;;;;;;5060303;28;20796;-60
2022/01/01 09:25:18;;;;;;;2.50;2.00;;;;;;;;;;5048197;28;20542;-59
2022/01/01 09:27:44;;;;;;;3.00;2.07;;;;;;;;;;5055250;28;20466;-61
2022/01/01 09:30:10;;;;;;;3.60;2.07;;;14.60;1.00;;;;;;5054407;28;20542;-65
2022/01/01 09:32:36;;;;;;;3.30;2.00;;;;;;;;;;5058239;28;20878;-63
2022/01/01 09:35:02;;;;;;;4.83;1.90;;;14.70;1.00;;;;;;5053338;28;20831;-63
2022/01/01 09:37:32;;;;;;;3.40;2.30;;;;;;;;;;5058638;28;20462;-63
2022/01/01 09:39:58;;;;;;;3.37;1.97;;;;;;;;;;5054018;28;20782;-65
2022/01/01 09:42:24;;;;;;;2.80;2.30;;;;;;;;;;5048895;28;21015;-62
2022/01/01 09:44:51;;;;;;;2.57;2.20;;;14.80;1.00;;;;;;5050827;28;20424;-63
2022/01/01 09:47:18;;;;;;;2.30;2.03;;;;;;;;;;5048955;28;20859;-67
2022/01/01 09:49:44;;;;;;;3.50;2.20;;;;;;;;;;5054798;28;20523;-61
2022/01/01 09:52:12;;;;;;;2.17;1.87;;;;;;;;;;5048789;28;20474;-63
2022/01/01 09:54:38;;;;;;;2.57;1.90;;;;;;;;;;5048812;28;20806;-58
2022/01/01 09:57:04;;;;;;;2.80;2.00;;;;;;;;;;5047998;28;20584;-64
2022/01/01 09:59:30;;;;;;;3.50;1.80;;;;;;;;;;5047726;28;20471;-63
2022/01/01 10:01:57;;;;;;;3.03;2.33;;;;;;;;;;5050238;28;20458;-71
2022/01/01 10:04:23;;;;;;;3.43;2.17;;;;;;;;;;5053809;28;21106;-71
2022/01/01 10:07:05;;;;;;;2.20;2.00;;;14.80;1.00;;;;;;5050265;28;20434;-71
2022/01/01 10:09:32;;;;;;;5.57;2.20;;;;;;;;;;5057029;28;20431;-71
2022/01/01 10:11:58;;;;;;;2.50;2.30;;;14.70;1.00;;;;;;5056706;28;20509;-70
2022/01/01 10:14:36;;;;;;;3.93;2.00;;;14.70;1.00;;;;;;5055558;28;20471;-70
2022/01/01 10:17:13;;;;;;;3.37;2.00;;;14.90;1.00;;;;;;5052108;28;20438;-68
2022/01/01 10:19:39;;;;;;;4.10;2.37;;;;;;;;;;5056621;28;20998;-70
2022/01/01 10:22:06;;;;;;;3.63;2.03;;;;;;;;;;5049922;28;20470;-70
2022/01/01 10:30:02;;;;;;;2.33;1.97;;;;;;;;;;5054476;28;20416;-69
2022/01/01 10:32:28;;;;;;;3.67;2.47;;;;;;;;;;5054777;28;20447;-68
2022/01/01 10:34:54;;;;;;;7.30;2.63;;;;;;;;;;5053343;28;20430;-71
2022/01/01 10:37:26;;;;;;;7.00;2.83;;;14.80;1.00;;;;;;5052375;28;21620;-73
2022/01/01 10:39:57;;;;;;;3.00;2.30;;;;;;;;;;5052168;28;20442;-70
2022/01/01 10:42:23;;;;;;;2.60;2.40;;;;;;;;;;5052178;28;20423;-71
2022/01/01 10:44:51;;;;;;;3.17;2.87;;;14.80;1.00;;;;;;5052059;28;21102;-69
2022/01/01 10:47:25;;;;;;;3.03;2.30;;;14.80;1.00;;;;;;5055398;28;20434;-69
2022/01/01 10:52:31;;;;;;;5.40;2.63;;;14.70;1.00;;;;;;5066035;28;20510;-68
2022/01/01 10:54:58;;;;;;;4.00;2.73;;;;;;;;;;5068181;28;20444;-69
2022/01/01 10:57:24;;;;;;;4.10;2.63;;;;;;;;;;5065850;28;20783;-69
2022/01/01 10:59:51;;;;;;;2.93;2.30;;;;;;;;;;5059060;28;20504;-68
2022/01/01 11:02:20;;;;;;;5.20;2.90;;;;;;;;;;5060787;28;20459;-71
2022/01/01 11:04:46;;;;;;;6.20;2.27;;;;;;;;;;5064494;28;20417;-70
2022/01/01 11:07:12;;;;;;;3.43;2.80;;;;;;;;;;5065431;28;20516;-70
2022/01/01 11:09:38;;;;;;;6.30;2.90;;;;;;;;;;5058273;28;20533;-70
2022/01/01 11:12:05;;;;;;;5.63;3.27;;;;;;;;;;5062806;28;20516;-68
2022/01/01 11:14:35;;;;;;;3.97;2.57;;;14.90;1.00;;;;;;5057971;28;20981;-70
2022/01/01 11:17:01;;;;;;;8.10;2.73;;;;;;;;;;5060593;28;20778;-69
2022/01/01 11:19:27;;;;;;;4.20;2.80;;;;;;;;;;5055922;28;20559;-70
2022/01/01 11:21:54;;;;;;;4.07;2.67;;;;;;;;;;5052298;28;20434;-72
2022/01/01 11:24:20;;;;;;;3.37;2.13;;;;;;;;;;5063241;28;20429;-71
2022/01/01 11:26:47;;;;;;;6.10;2.70;;;14.90;1.00;;;;;;5052448;28;20493;-69
2022/01/01 11:29:16;;;;;;;3.50;2.40;;;14.90;1.00;;;;;;5054898;28;20483;-70
2022/01/01 11:31:46;;;;;;;4.67;2.80;;;15.00;1.00;;;;;;5054510;28;20443;-71
2022/01/01 11:34:13;;;;;;;4.20;2.40;;;;;;;;;;5062768;28;20567;-71
2022/01/01 11:36:39;;;;;;;2.80;2.20;;;;;;;;;;5059322;28;20797;-70
2022/01/01 11:39:11;;;;;;;5.30;2.60;;;15.10;1.00;;;;;;5062564;28;20405;-70
2022/01/01 11:41:38;;;;;;;6.30;2.50;;;15.00;1.00;;;;;;5052459;28;20425;-72
2022/01/01 11:44:25;;;;;;;3.90;2.37;;;15.00;1.00;;;;;;5057112;28;20454;-71
2022/01/01 11:47:01;;;;;;;5.57;2.80;;;12.30;1.00;;;;;;5049936;28;20438;-69
2022/01/01 11:49:29;;;;;;;4.70;2.93;;;14.90;1.00;;;;;;5056895;28;20417;-70
2022/01/01 11:51:57;;;;;;;4.47;2.60;;;14.90;1.00;;;;;;5063184;28;20924;-72
2022/01/01 11:54:31;;;;;;;4.47;2.57;;;14.90;1.00;;;;;;5052885;28;20847;-73
2022/01/01 11:57:05;;;;;;;5.30;3.10;;;15.00;1.00;;;;;;5051478;28;20850;-72
2022/01/01 11:59:37;;;;;;;4.60;3.10;;;15.10;1.00;;;;;;5048317;28;20409;-71
2022/01/01 12:02:18;;;;;;;3.13;2.40;;;15.10;1.00;;;;;;5050084;28;20530;-71
2022/01/01 12:04:46;;;;;;;4.50;2.53;;;15.10;1.00;;;;;;5048947;28;20447;-71
2022/01/01 12:07:16;;;;;;;6.70;2.60;;;15.00;1.00;;;;;;5051610;28;20418;-71
2022/01/01 12:10:06;;;;;;;3.13;2.00;;;15.00;1.00;;;;;;5050079;28;20421;-69
2022/01/01 12:12:50;;;;;;;5.93;2.50;;;15.00;1.00;;;;;;5049896;28;20429;-73
2022/01/01 12:15:21;;;;;;;8.47;4.13;;;15.10;1.00;;;;;;5050877;28;20479;-73
2022/01/01 12:17:53;;;;;;;6.10;2.70;;;15.10;1.00;;;;;;5050068;28;20466;-73
2022/01/01 12:20:29;;;;;;;2.47;2.27;;;;;;;;;;5050609;28;20418;-70
2022/01/01 12:22:55;;;;;;;5.03;2.50;;;;;;;;;;5051927;28;20496;-70
2022/01/01 12:25:25;;;;;;;4.33;3.00;;;14.90;1.00;;;;;;5056088;28;20684;-71
2022/01/01 12:27:51;;;;;;;4.70;2.90;;;14.80;1.00;;;;;;5054207;28;20475;-69
2022/01/01 12:30:36;;;;;;;5.77;3.17;;;15.00;1.00;;;;;;5049530;28;20562;-71
2022/01/01 12:33:02;;;;;;;4.83;2.67;;;;;;;;;;5052697;28;20472;-70
2022/01/01 12:35:44;;;;;;;5.73;2.83;;;14.80;1.00;;;;;;5050716;28;20447;-69
2022/01/01 12:38:29;;;;;;;4.07;3.37;;;14.90;1.00;;;;;;5059583;28;20422;-69
2022/01/01 12:40:58;;;;;;;5.40;2.67;;;14.80;1.00;;;;;;5050472;28;20482;-70
2022/01/01 12:43:24;;;;;;;6.83;2.63;;;;;;;;;;5061628;28;20420;-69
2022/01/01 12:45:51;;;;;;;7.80;3.13;;;;;;;;;;5058953;28;20508;-69
2022/01/01 12:48:22;;;;;;;4.10;2.50;;;14.90;1.00;;;;;;5049679;28;21184;-69
2022/01/01 12:50:58;;;;;;;3.40;2.50;;;15.10;1.00;;;;;;5056531;28;20530;-68
2022/01/01 12:53:25;;;;;;;3.90;2.83;;;;;;;;;;5065470;28;20436;-68
2022/01/01 12:56:12;;;;;;;7.60;3.23;;;14.80;1.00;;;;;;5065649;28;20520;-69
2022/01/01 12:58:44;;;;;;;4.07;2.73;;;14.90;1.00;;;;;;5059211;28;20430;-69
2022/01/01 13:01:10;;;;;;;6.00;3.60;;;;;;;;;;5054910;28;20443;-68
2022/01/01 13:03:36;;;;;;;5.03;2.70;;;;;;;;;;5054867;28;20435;-73
2022/01/01 13:06:02;;;;;;;5.63;3.20;;;;;;;;;;5054617;28;20726;-67
2022/01/01 13:08:29;;;;;;;5.30;3.23;;;15.00;1.00;;;;;;5056414;28;20425;-67
2022/01/01 13:10:55;;;;;;;5.90;3.13;;;;;;;;;;5051139;28;20496;-69
2022/01/01 13:13:24;;;;;;;6.10;2.70;;;;;;;;;;5057526;28;20470;-71
2022/01/01 13:15:53;;;;;;;4.30;3.00;;;14.90;1.00;;;;;;5046405;28;20455;-69
2022/01/01 13:18:19;;;;;;;4.37;2.87;;;;;;;;;;5049165;28;20454;-70
2022/01/01 13:20:45;;;;;;;6.53;3.60;;;;;;;;;;5049144;28;20446;-70
2022/01/01 13:23:15;;;;;;;7.67;3.90;;;;;;;;;;5053120;28;20453;-73
2022/01/01 13:25:41;;;;;;;5.63;3.50;;;;;;;;;;5047489;28;20446;-72
2022/01/01 13:28:07;;;;;;;7.20;3.47;;;;;;;;;;5054604;28;20478;-73
2022/01/01 13:30:33;;;;;;;4.63;3.67;;;;;;;;;;5054911;28;20483;-71
2022/01/01 13:32:59;;;;;;;5.47;3.73;;;;;;;;;;5047929;28;20557;-70
2022/01/01 13:35:26;;;;;;;4.43;3.53;;;;;;;;;;5059175;28;20818;-72
2022/01/01 13:37:52;;;;;;;9.30;3.77;;;;;;;;;;5053248;28;20500;-63
2022/01/01 13:40:18;;;;;;;5.63;3.67;;;;;;;;;;5047850;28;20419;-64
2022/01/01 13:42:45;;;;;;;6.10;3.67;;;;;;;;;;5055881;28;22171;-64
2022/01/01 13:45:11;;;;;;;7.70;3.73;;;;;;;;;;5048064;28;20952;-64
2022/01/01 13:47:37;;;;;;;4.67;3.07;;;;;;;;;;5047044;28;20461;-63
2022/01/01 13:50:16;;;;;;;7.37;3.90;;;15.10;1.00;;;;;;5046832;28;20426;-64
2022/01/01 13:52:57;;;;;;;5.27;3.40;;;15.10;1.00;;;;;;5046712;28;20413;-62
2022/01/01 13:55:25;;;;;;;7.97;3.80;;;;;;;;;;5051579;28;20994;-64
2022/01/01 13:57:53;;;;;;;6.03;3.37;;;;;;;;;;5053626;28;20473;-62
2022/01/01 14:00:19;;;;;;;6.30;4.17;;;;;;;;;;5050060;28;20431;-63
2022/01/01 14:02:46;;;;;;;4.67;3.17;;;;;;;;;;5053302;28;20454;-64
2022/01/01 14:05:15;;;;;;;6.40;3.77;;;15.10;1.00;;;;;;5051594;28;20454;-65
2022/01/01 14:07:41;;;;;;;5.47;3.50;;;;;;;;;;5050310;28;20442;-64
2022/01/01 14:10:15;;;;;;;9.83;3.60;;;;;;;;;;5051338;28;20971;-63
2022/01/01 14:12:46;;;;;;;5.50;4.43;;;15.00;1.00;;;;;;5051947;28;20466;-63
2022/01/01 14:15:20;;;;;;;4.83;3.77;;;15.10;1.00;;;;;;5050340;28;20756;-64
2022/01/01 14:17:50;;;;;;;11.10;4.60;;;;;;;;;;5053311;28;20426;-62
2022/01/01 14:20:21;;;;;;;8.67;4.00;;;15.00;1.00;;;;;;5050988;28;20430;-63
2022/01/01 14:22:47;;;;;;;7.30;4.60;;;;;;;;;;5047325;28;20582;-63
2022/01/01 14:25:14;;;;;;;14.23;5.23;;;15.00;1.00;;;;;;5052940;28;20995;-63
2022/01/01 14:27:40;;;;;;;9.50;4.17;;;;;;;;;;5047605;28;20454;-64